Westfield, Pennsylvania
Current Conditions -  °F | °C
As of 8:15 PM on Saturday 22 Nov 2014 (Local Time) from KN38 Reporting Station
Overcast Overcast  
Wind Chill: 24°   Ceiling: 3800
Heat Index: 32°   Visibility: 10mi
Dew Point: 30°   Wind: 9mph
Humidity: 93%   Direction: 200°SSW
Pressure: 30.1"   Gusts: NA
Location:  41.92°N, 77.54°W
Report Text: KN38 230115Z AUTO 20008KT 10SM OVC038 00/M01 A3010 RMK AO2
Loading
Personal Weather Stations






























Interactive Weather Map New forecast layout! Learn more

10-Day Weather Forecast

Advertisements
Track Severe Weather on mobile